Aviation Digital Data Service (ADDS)

Output produced by METARs form (0239 UTC 22 July 2017)
found at http://www.aviationweather.gov/adds/metars/
 
HKEL 220100Z VRB02KT 9999 FEW018CB BKN080 15/13 Q1023
TAF HKEL 212300Z 2200/2224 08005KT 9999 FEW018CB BKN080 
     TEMPO 2200/2206 08005KT FEW017CB BKN080 
     BECMG 2208/2211 08010KT FEW023CB BKN080 
     TEMPO 2212/2218 VRB04KT -TSRA FEW020CB BKN021 
     BECMG 2220/2223 FEW020
       
HKJK 220200Z VRB02KT 9999 SCT009 BKN017 16/14 Q1022 NOSIG
TAF HKJK 212300Z 2200/2306 03005KT 9999 BKN018 
     TEMPO 2200/2206 FEW008 BKN018 
     BECMG 2208/2211 14010KT BKN027 
     TEMPO 2212/2218 SCT026 
     BECMG 2220/2223 VRB04KT BKN022 
     TEMPO 2300/2306 FEW008 BKN018
       
HKKI 220200Z 08002KT CAVOK 20/18 Q1016
TAF HKKI 212300Z 2200/2224 24005KT 9999 FEW020CB BKN090 
     TEMPO 2200/2206 CAVOK 
     BECMG 2208/2211 24005KT 9999 FEW027CB SCT028 
     TEMPO 2212/2218 24010KT FEW028CB 
     BECMG 2220/2223 FEW022
       
HKMO 220200Z 24003KT 9999 FEW018 22/21 Q1016 NOSIG
TAF HKMO 212300Z 2200/2306 23005KT 9999 FEW018 
     BECMG 2209/2212 17010KT SCT025 
     BECMG 2218/2221 20005KT FEW020 
     BECMG 2300/2306 24005KT FEW018
       
HKNW 220100Z 00000KT 9999 BKN018 16/13 Q1020